sensor_id;sensor_type;location;lat;lon;timestamp;temperature;humidity
17954;DHT22;9102;53.548;9.926;2023-07-13T00:01:58;16.40;99.90
17954;DHT22;9102;53.548;9.926;2023-07-13T00:04:25;16.40;99.90
17954;DHT22;9102;53.548;9.926;2023-07-13T00:06:53;16.40;99.90
17954;DHT22;9102;53.548;9.926;2023-07-13T00:09:22;16.50;99.90
17954;DHT22;9102;53.548;9.926;2023-07-13T00:11:52;16.40;99.90
17954;DHT22;9102;53.548;9.926;2023-07-13T00:14:19;16.40;99.90
17954;DHT22;9102;53.548;9.926;2023-07-13T00:16:46;16.40;99.90
17954;DHT22;9102;53.548;9.926;2023-07-13T00:19:14;16.30;99.90
17954;DHT22;9102;53.548;9.926;2023-07-13T00:21:41;16.30;99.90
17954;DHT22;9102;53.548;9.926;2023-07-13T00:24:12;16.30;99.90
17954;DHT22;9102;53.548;9.926;2023-07-13T00:26:41;16.20;99.90
17954;DHT22;9102;53.548;9.926;2023-07-13T00:29:11;16.40;99.90
17954;DHT22;9102;53.548;9.926;2023-07-13T00:31:38;16.30;99.90
17954;DHT22;9102;53.548;9.926;2023-07-13T00:34:05;16.20;99.90
17954;DHT22;9102;53.548;9.926;2023-07-13T00:36:32;16.20;99.90
17954;DHT22;9102;53.548;9.926;2023-07-13T00:38:59;16.20;99.90
17954;DHT22;9102;53.548;9.926;2023-07-13T00:41:26;16.30;99.90
17954;DHT22;9102;53.548;9.926;2023-07-13T00:43:55;16.30;99.90
17954;DHT22;9102;53.548;9.926;2023-07-13T00:46:25;16.40;99.90
17954;DHT22;9102;53.548;9.926;2023-07-13T00:48:54;16.40;99.90
17954;DHT22;9102;53.548;9.926;2023-07-13T00:51:30;16.40;99.90
17954;DHT22;9102;53.548;9.926;2023-07-13T00:53:59;16.40;99.90
17954;DHT22;9102;53.548;9.926;2023-07-13T00:56:27;16.30;99.90
17954;DHT22;9102;53.548;9.926;2023-07-13T00:58:57;16.40;99.90
17954;DHT22;9102;53.548;9.926;2023-07-13T01:01:26;16.40;99.90
17954;DHT22;9102;53.548;9.926;2023-07-13T01:03:53;16.40;99.90
17954;DHT22;9102;53.548;9.926;2023-07-13T01:06:19;16.40;99.90
17954;DHT22;9102;53.548;9.926;2023-07-13T01:08:46;16.40;99.90
17954;DHT22;9102;53.548;9.926;2023-07-13T01:11:18;16.40;99.90
17954;DHT22;9102;53.548;9.926;2023-07-13T01:13:46;16.30;99.90
17954;DHT22;9102;53.548;9.926;2023-07-13T01:16:21;16.30;99.90
17954;DHT22;9102;53.548;9.926;2023-07-13T01:18:48;16.30;99.90
17954;DHT22;9102;53.548;9.926;2023-07-13T01:21:17;16.30;99.90
17954;DHT22;9102;53.548;9.926;2023-07-13T01:23:44;16.30;99.90
17954;DHT22;9102;53.548;9.926;2023-07-13T01:26:12;16.30;99.90
17954;DHT22;9102;53.548;9.926;2023-07-13T01:28:38;16.20;99.90
17954;DHT22;9102;53.548;9.926;2023-07-13T01:31:05;16.20;99.90
17954;DHT22;9102;53.548;9.926;2023-07-13T01:33:33;16.20;99.90
17954;DHT22;9102;53.548;9.926;2023-07-13T01:36:01;16.20;99.90
17954;DHT22;9102;53.548;9.926;2023-07-13T01:38:29;16.20;99.90
17954;DHT22;9102;53.548;9.926;2023-07-13T01:40:56;16.20;99.90
17954;DHT22;9102;53.548;9.926;2023-07-13T01:43:23;16.00;99.90
17954;DHT22;9102;53.548;9.926;2023-07-13T01:45:50;16.10;99.90
17954;DHT22;9102;53.548;9.926;2023-07-13T01:48:16;16.10;99.90
17954;DHT22;9102;53.548;9.926;2023-07-13T01:50:47;16.10;99.90
17954;DHT22;9102;53.548;9.926;2023-07-13T01:53:14;16.10;99.90
17954;DHT22;9102;53.548;9.926;2023-07-13T01:55:42;16.00;99.90
17954;DHT22;9102;53.548;9.926;2023-07-13T01:58:09;16.00;99.90
17954;DHT22;9102;53.548;9.926;2023-07-13T02:00:36;15.90;99.90
17954;DHT22;9102;53.548;9.926;2023-07-13T02:06:26;15.80;99.90
17954;DHT22;9102;53.548;9.926;2023-07-13T02:08:53;15.80;99.90
17954;DHT22;9102;53.548;9.926;2023-07-13T02:11:22;15.70;99.90
17954;DHT22;9102;53.548;9.926;2023-07-13T02:13:50;15.80;99.90
17954;DHT22;9102;53.548;9.926;2023-07-13T02:16:17;15.80;99.90
17954;DHT22;9102;53.548;9.926;2023-07-13T02:18:44;15.80;99.90
17954;DHT22;9102;53.548;9.926;2023-07-13T02:21:11;15.80;99.90
17954;DHT22;9102;53.548;9.926;2023-07-13T02:23:38;15.80;99.90
17954;DHT22;9102;53.548;9.926;2023-07-13T02:26:04;15.80;99.90
17954;DHT22;9102;53.548;9.926;2023-07-13T02:28:33;15.80;99.90
17954;DHT22;9102;53.548;9.926;2023-07-13T02:31:05;15.80;99.90
17954;DHT22;9102;53.548;9.926;2023-07-13T02:33:32;15.80;99.90
17954;DHT22;9102;53.548;9.926;2023-07-13T02:35:59;15.80;99.90
17954;DHT22;9102;53.548;9.926;2023-07-13T02:38:25;15.70;99.90
17954;DHT22;9102;53.548;9.926;2023-07-13T02:40:52;15.70;99.90
17954;DHT22;9102;53.548;9.926;2023-07-13T02:43:19;15.70;99.90
17954;DHT22;9102;53.548;9.926;2023-07-13T02:45:47;15.70;99.90
17954;DHT22;9102;53.548;9.926;2023-07-13T02:48:14;15.80;99.90
17954;DHT22;9102;53.548;9.926;2023-07-13T02:50:41;15.70;99.90
17954;DHT22;9102;53.548;9.926;2023-07-13T02:53:08;15.70;99.90
17954;DHT22;9102;53.548;9.926;2023-07-13T02:55:35;15.70;99.90
17954;DHT22;9102;53.548;9.926;2023-07-13T02:58:02;15.70;99.90
17954;DHT22;9102;53.548;9.926;2023-07-13T03:00:29;15.70;99.90
17954;DHT22;9102;53.548;9.926;2023-07-13T03:02:57;15.60;99.90
17954;DHT22;9102;53.548;9.926;2023-07-13T03:05:24;15.70;99.90
17954;DHT22;9102;53.548;9.926;2023-07-13T03:07:51;15.70;99.90
17954;DHT22;9102;53.548;9.926;2023-07-13T03:10:19;15.70;99.90
17954;DHT22;9102;53.548;9.926;2023-07-13T03:12:46;15.60;99.90
17954;DHT22;9102;53.548;9.926;2023-07-13T03:15:13;15.70;99.90
17954;DHT22;9102;53.548;9.926;2023-07-13T03:17:40;15.60;99.90
17954;DHT22;9102;53.548;9.926;2023-07-13T03:20:11;15.60;99.90
17954;DHT22;9102;53.548;9.926;2023-07-13T03:22:38;15.60;99.90
17954;DHT22;9102;53.548;9.926;2023-07-13T03:25:05;15.60;99.90
17954;DHT22;9102;53.548;9.926;2023-07-13T03:27:32;15.60;99.90
17954;DHT22;9102;53.548;9.926;2023-07-13T03:29:59;15.60;99.90
17954;DHT22;9102;53.548;9.926;2023-07-13T03:32:26;15.60;99.90
17954;DHT22;9102;53.548;9.926;2023-07-13T03:34:53;15.60;99.90
17954;DHT22;9102;53.548;9.926;2023-07-13T03:37:22;15.60;99.90
17954;DHT22;9102;53.548;9.926;2023-07-13T03:39:49;15.60;99.90
17954;DHT22;9102;53.548;9.926;2023-07-13T03:42:16;15.50;99.90
17954;DHT22;9102;53.548;9.926;2023-07-13T03:44:43;15.60;99.90
17954;DHT22;9102;53.548;9.926;2023-07-13T03:47:14;15.60;99.90
17954;DHT22;9102;53.548;9.926;2023-07-13T03:49:41;15.60;99.90
17954;DHT22;9102;53.548;9.926;2023-07-13T03:52:08;15.60;99.90
17954;DHT22;9102;53.548;9.926;2023-07-13T03:54:38;15.60;99.90
17954;DHT22;9102;53.548;9.926;2023-07-13T03:57:05;15.70;99.90
17954;DHT22;9102;53.548;9.926;2023-07-13T03:59:32;15.70;99.90
17954;DHT22;9102;53.548;9.926;2023-07-13T04:02:00;15.90;99.90
17954;DHT22;9102;53.548;9.926;2023-07-13T04:07:49;15.90;99.90
17954;DHT22;9102;53.548;9.926;2023-07-13T04:10:17;15.90;99.90
17954;DHT22;9102;53.548;9.926;2023-07-13T04:12:44;15.90;99.90
17954;DHT22;9102;53.548;9.926;2023-07-13T04:18:52;16.00;99.90
17954;DHT22;9102;53.548;9.926;2023-07-13T04:21:20;15.90;99.90
17954;DHT22;9102;53.548;9.926;2023-07-13T04:23:48;16.00;99.90
17954;DHT22;9102;53.548;9.926;2023-07-13T04:26:17;16.00;99.90
17954;DHT22;9102;53.548;9.926;2023-07-13T04:28:46;16.20;99.90
17954;DHT22;9102;53.548;9.926;2023-07-13T04:31:13;16.10;99.90
17954;DHT22;9102;53.548;9.926;2023-07-13T04:33:40;16.10;99.90
17954;DHT22;9102;53.548;9.926;2023-07-13T04:36:08;16.20;99.90
17954;DHT22;9102;53.548;9.926;2023-07-13T04:38:35;16.20;99.90
17954;DHT22;9102;53.548;9.926;2023-07-13T04:41:04;16.30;99.90
17954;DHT22;9102;53.548;9.926;2023-07-13T04:43:33;16.30;99.90
17954;DHT22;9102;53.548;9.926;2023-07-13T04:46:03;16.30;99.90
17954;DHT22;9102;53.548;9.926;2023-07-13T04:48:31;16.70;99.90
17954;DHT22;9102;53.548;9.926;2023-07-13T04:50:58;17.00;99.90
17954;DHT22;9102;53.548;9.926;2023-07-13T04:53:26;17.20;99.90
17954;DHT22;9102;53.548;9.926;2023-07-13T04:55:53;17.30;99.90
17954;DHT22;9102;53.548;9.926;2023-07-13T04:58:21;17.40;99.90
17954;DHT22;9102;53.548;9.926;2023-07-13T05:00:49;17.40;99.90
17954;DHT22;9102;53.548;9.926;2023-07-13T05:03:17;17.40;99.90
17954;DHT22;9102;53.548;9.926;2023-07-13T05:05:53;17.50;99.90
17954;DHT22;9102;53.548;9.926;2023-07-13T05:08:20;17.40;99.90
17954;DHT22;9102;53.548;9.926;2023-07-13T05:10:47;17.60;99.90
17954;DHT22;9102;53.548;9.926;2023-07-13T05:13:14;17.60;99.90
17954;DHT22;9102;53.548;9.926;2023-07-13T05:15:41;17.70;99.90
17954;DHT22;9102;53.548;9.926;2023-07-13T05:18:09;17.60;99.90
17954;DHT22;9102;53.548;9.926;2023-07-13T05:20:36;17.70;99.90
17954;DHT22;9102;53.548;9.926;2023-07-13T05:23:03;17.70;99.90
17954;DHT22;9102;53.548;9.926;2023-07-13T05:25:30;17.80;99.90
17954;DHT22;9102;53.548;9.926;2023-07-13T05:27:57;17.80;99.90
17954;DHT22;9102;53.548;9.926;2023-07-13T05:30:23;17.90;99.90
17954;DHT22;9102;53.548;9.926;2023-07-13T05:32:50;17.90;99.90
17954;DHT22;9102;53.548;9.926;2023-07-13T05:35:18;17.80;99.90
17954;DHT22;9102;53.548;9.926;2023-07-13T05:37:45;17.90;99.90
17954;DHT22;9102;53.548;9.926;2023-07-13T05:40:12;17.70;99.90
17954;DHT22;9102;53.548;9.926;2023-07-13T05:42:39;17.60;99.90
17954;DHT22;9102;53.548;9.926;2023-07-13T05:48:28;17.50;99.90
17954;DHT22;9102;53.548;9.926;2023-07-13T05:50:56;17.50;99.90
17954;DHT22;9102;53.548;9.926;2023-07-13T05:53:23;17.50;99.90
17954;DHT22;9102;53.548;9.926;2023-07-13T05:55:49;17.50;99.90
17954;DHT22;9102;53.548;9.926;2023-07-13T05:58:19;17.60;99.90
17954;DHT22;9102;53.548;9.926;2023-07-13T06:00:46;17.60;99.90
17954;DHT22;9102;53.548;9.926;2023-07-13T06:03:14;17.70;99.90
17954;DHT22;9102;53.548;9.926;2023-07-13T06:05:41;17.80;99.90
17954;DHT22;9102;53.548;9.926;2023-07-13T06:08:09;17.80;99.90
17954;DHT22;9102;53.548;9.926;2023-07-13T06:10:37;17.70;99.90
17954;DHT22;9102;53.548;9.926;2023-07-13T06:13:03;17.60;99.90
17954;DHT22;9102;53.548;9.926;2023-07-13T06:15:30;17.70;99.90
17954;DHT22;9102;53.548;9.926;2023-07-13T06:17:57;17.60;99.90
17954;DHT22;9102;53.548;9.926;2023-07-13T06:20:24;17.60;99.90
17954;DHT22;9102;53.548;9.926;2023-07-13T06:22:51;17.70;99.90
17954;DHT22;9102;53.548;9.926;2023-07-13T06:25:19;17.80;99.90
17954;DHT22;9102;53.548;9.926;2023-07-13T06:27:46;17.80;99.90
17954;DHT22;9102;53.548;9.926;2023-07-13T06:30:13;17.90;99.90
17954;DHT22;9102;53.548;9.926;2023-07-13T06:32:40;18.00;99.90
17954;DHT22;9102;53.548;9.926;2023-07-13T06:35:07;18.10;99.90
17954;DHT22;9102;53.548;9.926;2023-07-13T06:37:33;18.20;99.90
17954;DHT22;9102;53.548;9.926;2023-07-13T06:40:00;18.30;99.90
17954;DHT22;9102;53.548;9.926;2023-07-13T06:42:28;18.40;99.90
17954;DHT22;9102;53.548;9.926;2023-07-13T06:44:55;18.40;99.90
17954;DHT22;9102;53.548;9.926;2023-07-13T06:47:22;18.40;99.90
17954;DHT22;9102;53.548;9.926;2023-07-13T06:49:49;18.50;99.90
17954;DHT22;9102;53.548;9.926;2023-07-13T06:52:16;18.60;99.90
17954;DHT22;9102;53.548;9.926;2023-07-13T06:54:42;18.70;99.90
17954;DHT22;9102;53.548;9.926;2023-07-13T06:57:09;18.80;99.90
17954;DHT22;9102;53.548;9.926;2023-07-13T06:59:37;18.80;99.90
17954;DHT22;9102;53.548;9.926;2023-07-13T07:02:05;18.80;99.90
17954;DHT22;9102;53.548;9.926;2023-07-13T07:04:32;18.80;99.90
17954;DHT22;9102;53.548;9.926;2023-07-13T07:06:59;18.80;99.90
17954;DHT22;9102;53.548;9.926;2023-07-13T07:09:26;18.80;99.90
17954;DHT22;9102;53.548;9.926;2023-07-13T07:11:55;19.00;99.90
17954;DHT22;9102;53.548;9.926;2023-07-13T07:14:21;19.10;99.90
17954;DHT22;9102;53.548;9.926;2023-07-13T07:16:50;19.20;99.90
17954;DHT22;9102;53.548;9.926;2023-07-13T07:19:16;19.20;99.90
17954;DHT22;9102;53.548;9.926;2023-07-13T07:21:43;19.10;99.90
17954;DHT22;9102;53.548;9.926;2023-07-13T07:24:10;19.00;99.90
17954;DHT22;9102;53.548;9.926;2023-07-13T07:26:37;19.00;99.90
17954;DHT22;9102;53.548;9.926;2023-07-13T07:29:03;19.10;99.90
17954;DHT22;9102;53.548;9.926;2023-07-13T07:31:30;19.10;99.90
17954;DHT22;9102;53.548;9.926;2023-07-13T07:33:58;19.20;99.90
17954;DHT22;9102;53.548;9.926;2023-07-13T07:36:25;19.40;99.90
17954;DHT22;9102;53.548;9.926;2023-07-13T07:38:53;19.50;99.90
17954;DHT22;9102;53.548;9.926;2023-07-13T07:41:20;19.40;99.90
17954;DHT22;9102;53.548;9.926;2023-07-13T07:43:47;19.50;99.90
17954;DHT22;9102;53.548;9.926;2023-07-13T07:46:13;19.70;99.90
17954;DHT22;9102;53.548;9.926;2023-07-13T07:48:40;19.70;99.90
17954;DHT22;9102;53.548;9.926;2023-07-13T07:51:08;19.90;99.90
17954;DHT22;9102;53.548;9.926;2023-07-13T07:53:35;20.10;99.90
17954;DHT22;9102;53.548;9.926;2023-07-13T07:56:02;20.10;99.90
17954;DHT22;9102;53.548;9.926;2023-07-13T07:58:29;20.10;99.90
17954;DHT22;9102;53.548;9.926;2023-07-13T08:01:02;20.00;99.90
17954;DHT22;9102;53.548;9.926;2023-07-13T08:03:29;19.90;99.90
17954;DHT22;9102;53.548;9.926;2023-07-13T08:05:56;19.90;99.90
17954;DHT22;9102;53.548;9.926;2023-07-13T08:08:24;20.00;99.90
17954;DHT22;9102;53.548;9.926;2023-07-13T08:10:51;20.20;99.90
17954;DHT22;9102;53.548;9.926;2023-07-13T08:13:18;20.30;99.90
17954;DHT22;9102;53.548;9.926;2023-07-13T08:15:46;20.30;99.90
17954;DHT22;9102;53.548;9.926;2023-07-13T08:18:12;20.40;99.90
17954;DHT22;9102;53.548;9.926;2023-07-13T08:20:40;20.40;99.90
17954;DHT22;9102;53.548;9.926;2023-07-13T08:23:10;20.50;99.90
17954;DHT22;9102;53.548;9.926;2023-07-13T08:25:41;20.80;99.90
17954;DHT22;9102;53.548;9.926;2023-07-13T08:28:07;21.00;99.90
17954;DHT22;9102;53.548;9.926;2023-07-13T08:30:34;21.10;99.90
17954;DHT22;9102;53.548;9.926;2023-07-13T08:33:02;21.20;99.90
17954;DHT22;9102;53.548;9.926;2023-07-13T08:35:28;21.20;99.90
17954;DHT22;9102;53.548;9.926;2023-07-13T08:37:55;21.10;99.90
17954;DHT22;9102;53.548;9.926;2023-07-13T08:40:27;20.70;99.90
17954;DHT22;9102;53.548;9.926;2023-07-13T08:42:58;20.60;99.90
17954;DHT22;9102;53.548;9.926;2023-07-13T08:45:32;20.60;99.90
17954;DHT22;9102;53.548;9.926;2023-07-13T08:48:03;20.60;99.90
17954;DHT22;9102;53.548;9.926;2023-07-13T08:50:34;20.60;99.90
17954;DHT22;9102;53.548;9.926;2023-07-13T08:53:02;20.70;99.90
17954;DHT22;9102;53.548;9.926;2023-07-13T08:55:33;20.50;99.90
17954;DHT22;9102;53.548;9.926;2023-07-13T08:58:10;20.40;99.90
17954;DHT22;9102;53.548;9.926;2023-07-13T09:00:44;20.40;99.90
17954;DHT22;9102;53.548;9.926;2023-07-13T09:03:19;20.50;99.90
17954;DHT22;9102;53.548;9.926;2023-07-13T09:05:52;20.60;99.90
17954;DHT22;9102;53.548;9.926;2023-07-13T09:08:33;20.70;99.90
17954;DHT22;9102;53.548;9.926;2023-07-13T09:11:13;20.90;99.90
17954;DHT22;9102;53.548;9.926;2023-07-13T09:13:51;21.00;99.90
17954;DHT22;9102;53.548;9.926;2023-07-13T09:16:22;21.20;99.90
17954;DHT22;9102;53.548;9.926;2023-07-13T09:18:51;21.40;99.90
17954;DHT22;9102;53.548;9.926;2023-07-13T09:21:24;21.40;99.90
17954;DHT22;9102;53.548;9.926;2023-07-13T09:23:53;21.60;99.90
17954;DHT22;9102;53.548;9.926;2023-07-13T09:26:23;21.80;99.90
17954;DHT22;9102;53.548;9.926;2023-07-13T09:28:57;22.00;99.90
17954;DHT22;9102;53.548;9.926;2023-07-13T09:31:31;22.10;99.90
17954;DHT22;9102;53.548;9.926;2023-07-13T09:34:00;22.10;99.90
17954;DHT22;9102;53.548;9.926;2023-07-13T09:36:29;22.20;99.90
17954;DHT22;9102;53.548;9.926;2023-07-13T09:39:01;22.10;99.90
17954;DHT22;9102;53.548;9.926;2023-07-13T09:41:35;22.20;99.90
17954;DHT22;9102;53.548;9.926;2023-07-13T09:44:10;22.10;99.90
17954;DHT22;9102;53.548;9.926;2023-07-13T09:46:38;22.10;99.90
17954;DHT22;9102;53.548;9.926;2023-07-13T09:49:08;22.40;99.90
17954;DHT22;9102;53.548;9.926;2023-07-13T09:51:36;22.60;99.90
17954;DHT22;9102;53.548;9.926;2023-07-13T09:54:03;22.90;99.90
17954;DHT22;9102;53.548;9.926;2023-07-13T09:56:30;23.10;99.90
17954;DHT22;9102;53.548;9.926;2023-07-13T09:58:59;23.10;99.90
17954;DHT22;9102;53.548;9.926;2023-07-13T10:01:36;22.90;99.90
17954;DHT22;9102;53.548;9.926;2023-07-13T10:04:10;22.70;99.90
17954;DHT22;9102;53.548;9.926;2023-07-13T10:06:39;22.50;99.90
17954;DHT22;9102;53.548;9.926;2023-07-13T10:09:08;22.20;99.90
17954;DHT22;9102;53.548;9.926;2023-07-13T10:11:36;22.00;99.90
17954;DHT22;9102;53.548;9.926;2023-07-13T10:14:11;22.00;99.90
17954;DHT22;9102;53.548;9.926;2023-07-13T10:16:42;22.30;99.90
17954;DHT22;9102;53.548;9.926;2023-07-13T10:19:13;22.50;99.90
17954;DHT22;9102;53.548;9.926;2023-07-13T10:21:53;22.70;99.90
17954;DHT22;9102;53.548;9.926;2023-07-13T10:24:22;22.50;99.90
17954;DHT22;9102;53.548;9.926;2023-07-13T10:26:54;22.20;99.90
17954;DHT22;9102;53.548;9.926;2023-07-13T10:29:24;22.00;99.90
17954;DHT22;9102;53.548;9.926;2023-07-13T10:31:53;21.90;99.90
17954;DHT22;9102;53.548;9.926;2023-07-13T10:34:22;21.90;99.90
17954;DHT22;9102;53.548;9.926;2023-07-13T10:36:51;22.20;99.90
17954;DHT22;9102;53.548;9.926;2023-07-13T10:39:20;22.40;99.90
17954;DHT22;9102;53.548;9.926;2023-07-13T10:41:52;22.50;99.90
17954;DHT22;9102;53.548;9.926;2023-07-13T10:44:24;22.50;99.90
17954;DHT22;9102;53.548;9.926;2023-07-13T10:46:59;22.60;99.90
17954;DHT22;9102;53.548;9.926;2023-07-13T10:49:29;22.80;99.90
17954;DHT22;9102;53.548;9.926;2023-07-13T10:51:56;22.80;99.90
17954;DHT22;9102;53.548;9.926;2023-07-13T10:54:27;22.80;99.90
17954;DHT22;9102;53.548;9.926;2023-07-13T10:57:13;22.80;99.90
17954;DHT22;9102;53.548;9.926;2023-07-13T10:59:42;22.60;99.90
17954;DHT22;9102;53.548;9.926;2023-07-13T11:02:17;22.60;99.90
17954;DHT22;9102;53.548;9.926;2023-07-13T11:04:48;22.60;99.90
17954;DHT22;9102;53.548;9.926;2023-07-13T11:07:20;22.70;99.90
17954;DHT22;9102;53.548;9.926;2023-07-13T11:09:50;22.80;99.90
17954;DHT22;9102;53.548;9.926;2023-07-13T11:15:12;23.20;99.90
17954;DHT22;9102;53.548;9.926;2023-07-13T11:17:53;23.60;99.90
17954;DHT22;9102;53.548;9.926;2023-07-13T11:20:36;23.50;99.90
17954;DHT22;9102;53.548;9.926;2023-07-13T11:23:28;23.60;99.90
17954;DHT22;9102;53.548;9.926;2023-07-13T11:25:56;24.20;99.90
17954;DHT22;9102;53.548;9.926;2023-07-13T11:28:25;24.20;99.90
17954;DHT22;9102;53.548;9.926;2023-07-13T11:31:13;24.30;99.90
17954;DHT22;9102;53.548;9.926;2023-07-13T11:33:51;24.20;99.90
17954;DHT22;9102;53.548;9.926;2023-07-13T11:36:19;24.30;99.90
17954;DHT22;9102;53.548;9.926;2023-07-13T11:38:55;24.20;99.90
17954;DHT22;9102;53.548;9.926;2023-07-13T11:41:28;24.30;99.90
17954;DHT22;9102;53.548;9.926;2023-07-13T11:44:05;24.20;99.90
17954;DHT22;9102;53.548;9.926;2023-07-13T11:46:32;23.80;99.90
17954;DHT22;9102;53.548;9.926;2023-07-13T11:49:00;23.80;99.90
17954;DHT22;9102;53.548;9.926;2023-07-13T11:51:29;23.80;99.90
17954;DHT22;9102;53.548;9.926;2023-07-13T11:54:03;23.80;99.90
17954;DHT22;9102;53.548;9.926;2023-07-13T11:56:32;23.60;99.90
17954;DHT22;9102;53.548;9.926;2023-07-13T11:59:04;23.40;99.90
17954;DHT22;9102;53.548;9.926;2023-07-13T12:01:42;23.30;99.90
17954;DHT22;9102;53.548;9.926;2023-07-13T12:04:21;23.20;99.90
17954;DHT22;9102;53.548;9.926;2023-07-13T12:06:55;23.00;99.90
17954;DHT22;9102;53.548;9.926;2023-07-13T12:09:22;22.90;99.90
17954;DHT22;9102;53.548;9.926;2023-07-13T12:11:51;22.90;99.90
17954;DHT22;9102;53.548;9.926;2023-07-13T12:14:18;22.60;99.90
17954;DHT22;9102;53.548;9.926;2023-07-13T12:16:46;22.30;99.90
17954;DHT22;9102;53.548;9.926;2023-07-13T12:19:18;21.70;99.90
17954;DHT22;9102;53.548;9.926;2023-07-13T12:21:46;20.30;99.90
17954;DHT22;9102;53.548;9.926;2023-07-13T12:24:14;19.10;99.90
17954;DHT22;9102;53.548;9.926;2023-07-13T12:26:41;18.50;99.90
17954;DHT22;9102;53.548;9.926;2023-07-13T12:29:15;17.90;99.90
17954;DHT22;9102;53.548;9.926;2023-07-13T12:31:45;17.50;99.90
17954;DHT22;9102;53.548;9.926;2023-07-13T12:34:13;17.20;99.90
17954;DHT22;9102;53.548;9.926;2023-07-13T12:36:47;17.10;99.90
17954;DHT22;9102;53.548;9.926;2023-07-13T12:39:17;17.00;99.90
17954;DHT22;9102;53.548;9.926;2023-07-13T12:41:45;17.10;99.90
17954;DHT22;9102;53.548;9.926;2023-07-13T12:44:14;17.20;99.90
17954;DHT22;9102;53.548;9.926;2023-07-13T12:46:53;17.30;99.90
17954;DHT22;9102;53.548;9.926;2023-07-13T12:49:24;17.10;99.90
17954;DHT22;9102;53.548;9.926;2023-07-13T12:51:56;17.30;99.90
17954;DHT22;9102;53.548;9.926;2023-07-13T12:54:24;17.50;99.90
17954;DHT22;9102;53.548;9.926;2023-07-13T12:56:53;17.70;99.90
17954;DHT22;9102;53.548;9.926;2023-07-13T12:59:22;17.90;99.90
17954;DHT22;9102;53.548;9.926;2023-07-13T13:01:51;18.10;99.90
17954;DHT22;9102;53.548;9.926;2023-07-13T13:04:20;18.30;99.90
17954;DHT22;9102;53.548;9.926;2023-07-13T13:06:47;18.10;99.90
17954;DHT22;9102;53.548;9.926;2023-07-13T13:09:17;18.20;99.90
17954;DHT22;9102;53.548;9.926;2023-07-13T13:11:45;18.10;99.90
17954;DHT22;9102;53.548;9.926;2023-07-13T13:14:12;18.10;99.90
17954;DHT22;9102;53.548;9.926;2023-07-13T13:16:46;18.20;99.90
17954;DHT22;9102;53.548;9.926;2023-07-13T13:19:16;18.60;99.90
17954;DHT22;9102;53.548;9.926;2023-07-13T13:21:45;18.90;99.90
17954;DHT22;9102;53.548;9.926;2023-07-13T13:24:13;19.10;99.90
17954;DHT22;9102;53.548;9.926;2023-07-13T13:26:42;19.50;99.90
17954;DHT22;9102;53.548;9.926;2023-07-13T13:29:12;19.80;99.90
17954;DHT22;9102;53.548;9.926;2023-07-13T13:31:40;20.00;99.90
17954;DHT22;9102;53.548;9.926;2023-07-13T13:34:10;19.90;99.90
17954;DHT22;9102;53.548;9.926;2023-07-13T13:36:37;19.90;99.90
17954;DHT22;9102;53.548;9.926;2023-07-13T13:39:18;20.00;99.90
17954;DHT22;9102;53.548;9.926;2023-07-13T13:41:48;19.90;99.90
17954;DHT22;9102;53.548;9.926;2023-07-13T13:44:16;20.00;99.90
17954;DHT22;9102;53.548;9.926;2023-07-13T13:46:45;20.20;99.90
17954;DHT22;9102;53.548;9.926;2023-07-13T13:49:14;20.20;99.90
17954;DHT22;9102;53.548;9.926;2023-07-13T13:51:42;20.00;99.90
17954;DHT22;9102;53.548;9.926;2023-07-13T13:54:11;19.90;99.90
17954;DHT22;9102;53.548;9.926;2023-07-13T13:56:40;20.00;99.90
17954;DHT22;9102;53.548;9.926;2023-07-13T13:59:08;20.00;99.90
17954;DHT22;9102;53.548;9.926;2023-07-13T14:01:36;19.60;99.90
17954;DHT22;9102;53.548;9.926;2023-07-13T14:04:03;19.50;99.90
17954;DHT22;9102;53.548;9.926;2023-07-13T14:06:31;19.50;99.90
17954;DHT22;9102;53.548;9.926;2023-07-13T14:08:58;19.50;99.90
17954;DHT22;9102;53.548;9.926;2023-07-13T14:11:25;19.30;99.90
17954;DHT22;9102;53.548;9.926;2023-07-13T14:13:55;19.80;99.90
17954;DHT22;9102;53.548;9.926;2023-07-13T14:16:27;19.70;99.90
17954;DHT22;9102;53.548;9.926;2023-07-13T14:18:55;20.00;99.90
17954;DHT22;9102;53.548;9.926;2023-07-13T14:21:24;20.00;99.90
17954;DHT22;9102;53.548;9.926;2023-07-13T14:23:51;20.30;99.90
17954;DHT22;9102;53.548;9.926;2023-07-13T14:26:20;20.50;99.90
17954;DHT22;9102;53.548;9.926;2023-07-13T14:28:48;20.60;99.90
17954;DHT22;9102;53.548;9.926;2023-07-13T14:31:16;20.80;99.90
17954;DHT22;9102;53.548;9.926;2023-07-13T14:33:46;21.00;99.90
17954;DHT22;9102;53.548;9.926;2023-07-13T14:36:22;21.20;99.90
17954;DHT22;9102;53.548;9.926;2023-07-13T14:38:50;21.50;99.90
17954;DHT22;9102;53.548;9.926;2023-07-13T14:41:16;21.40;99.90
17954;DHT22;9102;53.548;9.926;2023-07-13T14:43:43;21.30;99.90
17954;DHT22;9102;53.548;9.926;2023-07-13T14:46:19;21.30;99.90
17954;DHT22;9102;53.548;9.926;2023-07-13T14:48:50;21.10;99.90
17954;DHT22;9102;53.548;9.926;2023-07-13T14:51:17;21.00;99.90
17954;DHT22;9102;53.548;9.926;2023-07-13T14:53:44;20.70;99.90
17954;DHT22;9102;53.548;9.926;2023-07-13T14:56:11;20.10;99.90
17954;DHT22;9102;53.548;9.926;2023-07-13T14:58:38;19.70;99.90
17954;DHT22;9102;53.548;9.926;2023-07-13T15:01:25;19.50;99.90
17954;DHT22;9102;53.548;9.926;2023-07-13T15:03:54;19.60;99.90
17954;DHT22;9102;53.548;9.926;2023-07-13T15:06:21;19.70;99.90
17954;DHT22;9102;53.548;9.926;2023-07-13T15:08:47;19.90;99.90
17954;DHT22;9102;53.548;9.926;2023-07-13T15:11:15;20.10;99.90
17954;DHT22;9102;53.548;9.926;2023-07-13T15:13:42;20.50;99.90
17954;DHT22;9102;53.548;9.926;2023-07-13T15:16:15;20.80;99.90
17954;DHT22;9102;53.548;9.926;2023-07-13T15:18:44;20.90;99.90
17954;DHT22;9102;53.548;9.926;2023-07-13T15:21:21;20.90;99.90
17954;DHT22;9102;53.548;9.926;2023-07-13T15:23:49;20.90;99.90
17954;DHT22;9102;53.548;9.926;2023-07-13T15:26:18;20.80;99.90
17954;DHT22;9102;53.548;9.926;2023-07-13T15:28:47;20.80;99.90
17954;DHT22;9102;53.548;9.926;2023-07-13T15:31:20;20.90;99.90
17954;DHT22;9102;53.548;9.926;2023-07-13T15:33:47;20.90;99.90
17954;DHT22;9102;53.548;9.926;2023-07-13T15:36:16;20.90;99.90
17954;DHT22;9102;53.548;9.926;2023-07-13T15:38:44;20.90;99.90
17954;DHT22;9102;53.548;9.926;2023-07-13T15:41:19;21.00;99.90
17954;DHT22;9102;53.548;9.926;2023-07-13T15:43:48;21.20;99.90
17954;DHT22;9102;53.548;9.926;2023-07-13T15:46:17;21.30;99.90
17954;DHT22;9102;53.548;9.926;2023-07-13T15:48:44;21.40;99.90
17954;DHT22;9102;53.548;9.926;2023-07-13T15:51:18;21.60;99.90
17954;DHT22;9102;53.548;9.926;2023-07-13T15:53:46;21.60;99.90
17954;DHT22;9102;53.548;9.926;2023-07-13T15:56:19;21.60;99.90
17954;DHT22;9102;53.548;9.926;2023-07-13T15:58:48;21.50;99.90
17954;DHT22;9102;53.548;9.926;2023-07-13T16:01:17;21.60;99.90
17954;DHT22;9102;53.548;9.926;2023-07-13T16:03:44;21.50;99.90
17954;DHT22;9102;53.548;9.926;2023-07-13T16:06:28;21.40;99.90
17954;DHT22;9102;53.548;9.926;2023-07-13T16:08:56;21.30;99.90
17954;DHT22;9102;53.548;9.926;2023-07-13T16:11:25;21.30;99.90
17954;DHT22;9102;53.548;9.926;2023-07-13T16:13:53;21.00;99.90